sensor_id;sensor_type;location;lat;lon;timestamp;temperature;humidity
30304;DHT22;17112;48.636;10.152;2022-10-16T00:01:12;17.10;76.20
30304;DHT22;17112;48.636;10.152;2022-10-16T00:03:41;17.10;76.60
30304;DHT22;17112;48.636;10.152;2022-10-16T00:06:08;17.10;76.60
30304;DHT22;17112;48.636;10.152;2022-10-16T00:08:35;17.10;76.50
30304;DHT22;17112;48.636;10.152;2022-10-16T00:11:11;17.10;76.50
30304;DHT22;17112;48.636;10.152;2022-10-16T00:13:39;17.10;76.60
30304;DHT22;17112;48.636;10.152;2022-10-16T00:16:09;17.10;76.50
30304;DHT22;17112;48.636;10.152;2022-10-16T00:18:36;17.10;76.50
30304;DHT22;17112;48.636;10.152;2022-10-16T00:21:23;17.10;76.50
30304;DHT22;17112;48.636;10.152;2022-10-16T00:23:58;17.10;76.90
30304;DHT22;17112;48.636;10.152;2022-10-16T00:26:25;17.10;76.60
30304;DHT22;17112;48.636;10.152;2022-10-16T00:28:51;17.10;76.40
30304;DHT22;17112;48.636;10.152;2022-10-16T00:31:19;17.00;76.40
30304;DHT22;17112;48.636;10.152;2022-10-16T00:33:45;17.00;76.50
30304;DHT22;17112;48.636;10.152;2022-10-16T00:36:13;17.00;76.50
30304;DHT22;17112;48.636;10.152;2022-10-16T00:38:40;17.00;76.50
30304;DHT22;17112;48.636;10.152;2022-10-16T00:41:09;17.00;76.40
30304;DHT22;17112;48.636;10.152;2022-10-16T00:43:50;17.00;76.30
30304;DHT22;17112;48.636;10.152;2022-10-16T00:46:23;17.00;76.60
30304;DHT22;17112;48.636;10.152;2022-10-16T00:49:25;16.90;76.30
30304;DHT22;17112;48.636;10.152;2022-10-16T00:51:52;16.90;76.90
30304;DHT22;17112;48.636;10.152;2022-10-16T00:54:28;16.90;76.10
30304;DHT22;17112;48.636;10.152;2022-10-16T00:56:57;16.90;76.40
30304;DHT22;17112;48.636;10.152;2022-10-16T00:59:30;16.90;76.20
30304;DHT22;17112;48.636;10.152;2022-10-16T01:01:57;16.80;76.20
30304;DHT22;17112;48.636;10.152;2022-10-16T01:04:24;16.80;76.10
30304;DHT22;17112;48.636;10.152;2022-10-16T01:07:16;16.80;76.20
30304;DHT22;17112;48.636;10.152;2022-10-16T01:12:53;16.70;76.30
30304;DHT22;17112;48.636;10.152;2022-10-16T01:15:56;16.70;76.30
30304;DHT22;17112;48.636;10.152;2022-10-16T01:18:43;16.60;76.30
30304;DHT22;17112;48.636;10.152;2022-10-16T01:21:22;16.60;76.00
30304;DHT22;17112;48.636;10.152;2022-10-16T01:27:05;16.50;76.00
30304;DHT22;17112;48.636;10.152;2022-10-16T01:32:16;16.40;76.10
30304;DHT22;17112;48.636;10.152;2022-10-16T01:37:36;16.30;76.60
30304;DHT22;17112;48.636;10.152;2022-10-16T01:40:09;16.30;76.10
30304;DHT22;17112;48.636;10.152;2022-10-16T01:42:49;16.30;75.90
30304;DHT22;17112;48.636;10.152;2022-10-16T01:45:18;16.20;75.80
30304;DHT22;17112;48.636;10.152;2022-10-16T01:47:45;16.20;75.60
30304;DHT22;17112;48.636;10.152;2022-10-16T01:50:13;16.20;75.60
30304;DHT22;17112;48.636;10.152;2022-10-16T01:52:43;16.10;75.60
30304;DHT22;17112;48.636;10.152;2022-10-16T01:55:12;16.10;75.60
30304;DHT22;17112;48.636;10.152;2022-10-16T01:57:42;16.00;75.50
30304;DHT22;17112;48.636;10.152;2022-10-16T02:00:12;16.00;75.60
30304;DHT22;17112;48.636;10.152;2022-10-16T02:02:40;15.90;75.60
30304;DHT22;17112;48.636;10.152;2022-10-16T02:05:15;15.90;75.70
30304;DHT22;17112;48.636;10.152;2022-10-16T02:07:43;15.90;75.70
30304;DHT22;17112;48.636;10.152;2022-10-16T02:10:09;15.80;75.50
30304;DHT22;17112;48.636;10.152;2022-10-16T02:12:38;15.80;75.70
30304;DHT22;17112;48.636;10.152;2022-10-16T02:15:07;15.80;75.90
30304;DHT22;17112;48.636;10.152;2022-10-16T02:17:33;15.80;76.00
30304;DHT22;17112;48.636;10.152;2022-10-16T02:19:59;15.70;75.90
30304;DHT22;17112;48.636;10.152;2022-10-16T02:22:35;15.70;75.90
30304;DHT22;17112;48.636;10.152;2022-10-16T02:27:54;15.70;76.10
30304;DHT22;17112;48.636;10.152;2022-10-16T02:30:44;15.60;76.30
30304;DHT22;17112;48.636;10.152;2022-10-16T02:33:14;15.60;76.20
30304;DHT22;17112;48.636;10.152;2022-10-16T02:35:43;15.60;76.10
30304;DHT22;17112;48.636;10.152;2022-10-16T02:38:10;15.60;76.20
30304;DHT22;17112;48.636;10.152;2022-10-16T02:40:37;15.60;76.40
30304;DHT22;17112;48.636;10.152;2022-10-16T02:43:04;15.60;76.40
30304;DHT22;17112;48.636;10.152;2022-10-16T02:45:31;15.60;76.60
30304;DHT22;17112;48.636;10.152;2022-10-16T02:47:57;15.60;76.70
30304;DHT22;17112;48.636;10.152;2022-10-16T02:50:23;15.60;76.70
30304;DHT22;17112;48.636;10.152;2022-10-16T02:52:50;15.60;76.80
30304;DHT22;17112;48.636;10.152;2022-10-16T02:55:16;15.60;76.80
30304;DHT22;17112;48.636;10.152;2022-10-16T02:57:42;15.60;77.00
30304;DHT22;17112;48.636;10.152;2022-10-16T03:00:09;15.60;77.00
30304;DHT22;17112;48.636;10.152;2022-10-16T03:02:36;15.60;77.00
30304;DHT22;17112;48.636;10.152;2022-10-16T03:05:02;15.60;77.00
30304;DHT22;17112;48.636;10.152;2022-10-16T03:07:28;15.60;77.00
30304;DHT22;17112;48.636;10.152;2022-10-16T03:09:53;15.60;77.10
30304;DHT22;17112;48.636;10.152;2022-10-16T03:12:20;15.60;77.20
30304;DHT22;17112;48.636;10.152;2022-10-16T03:14:46;15.60;77.20
30304;DHT22;17112;48.636;10.152;2022-10-16T03:17:12;15.70;77.30
30304;DHT22;17112;48.636;10.152;2022-10-16T03:19:38;15.70;77.30
30304;DHT22;17112;48.636;10.152;2022-10-16T03:22:04;15.70;77.30
30304;DHT22;17112;48.636;10.152;2022-10-16T03:24:30;15.70;77.30
30304;DHT22;17112;48.636;10.152;2022-10-16T03:26:55;15.70;77.10
30304;DHT22;17112;48.636;10.152;2022-10-16T03:29:21;15.70;77.30
30304;DHT22;17112;48.636;10.152;2022-10-16T03:31:47;15.70;77.30
30304;DHT22;17112;48.636;10.152;2022-10-16T03:34:14;15.70;77.30
30304;DHT22;17112;48.636;10.152;2022-10-16T03:36:40;15.70;77.30
30304;DHT22;17112;48.636;10.152;2022-10-16T03:39:07;15.70;77.40
30304;DHT22;17112;48.636;10.152;2022-10-16T03:41:32;15.70;77.30
30304;DHT22;17112;48.636;10.152;2022-10-16T03:43:58;15.70;77.00
30304;DHT22;17112;48.636;10.152;2022-10-16T03:46:24;15.70;77.10
30304;DHT22;17112;48.636;10.152;2022-10-16T03:48:49;15.60;77.10
30304;DHT22;17112;48.636;10.152;2022-10-16T03:51:15;15.60;77.80
30304;DHT22;17112;48.636;10.152;2022-10-16T03:53:41;15.60;77.40
30304;DHT22;17112;48.636;10.152;2022-10-16T03:56:06;15.60;77.50
30304;DHT22;17112;48.636;10.152;2022-10-16T03:58:32;15.60;77.60
30304;DHT22;17112;48.636;10.152;2022-10-16T04:00:58;15.60;77.70
30304;DHT22;17112;48.636;10.152;2022-10-16T04:03:24;15.60;77.60
30304;DHT22;17112;48.636;10.152;2022-10-16T04:05:49;15.60;77.60
30304;DHT22;17112;48.636;10.152;2022-10-16T04:08:15;15.60;78.20
30304;DHT22;17112;48.636;10.152;2022-10-16T04:10:44;15.60;77.40
30304;DHT22;17112;48.636;10.152;2022-10-16T04:13:11;15.60;77.50
30304;DHT22;17112;48.636;10.152;2022-10-16T04:15:37;15.50;77.30
30304;DHT22;17112;48.636;10.152;2022-10-16T04:18:03;15.60;77.40
30304;DHT22;17112;48.636;10.152;2022-10-16T04:20:29;15.60;77.40
30304;DHT22;17112;48.636;10.152;2022-10-16T04:22:55;15.60;77.40
30304;DHT22;17112;48.636;10.152;2022-10-16T04:25:21;15.60;77.40
30304;DHT22;17112;48.636;10.152;2022-10-16T04:27:47;15.50;77.40
30304;DHT22;17112;48.636;10.152;2022-10-16T04:30:13;15.50;77.60
30304;DHT22;17112;48.636;10.152;2022-10-16T04:32:39;15.50;77.70
30304;DHT22;17112;48.636;10.152;2022-10-16T04:35:06;15.50;77.70
30304;DHT22;17112;48.636;10.152;2022-10-16T04:37:32;15.50;77.70
30304;DHT22;17112;48.636;10.152;2022-10-16T04:39:57;15.50;77.70
30304;DHT22;17112;48.636;10.152;2022-10-16T04:42:23;15.50;77.70
30304;DHT22;17112;48.636;10.152;2022-10-16T04:44:49;15.50;77.80
30304;DHT22;17112;48.636;10.152;2022-10-16T04:47:14;15.50;77.80
30304;DHT22;17112;48.636;10.152;2022-10-16T04:49:40;15.50;77.80
30304;DHT22;17112;48.636;10.152;2022-10-16T04:52:06;15.50;77.90
30304;DHT22;17112;48.636;10.152;2022-10-16T04:54:32;15.50;78.00
30304;DHT22;17112;48.636;10.152;2022-10-16T04:56:57;15.50;78.10
30304;DHT22;17112;48.636;10.152;2022-10-16T04:59:23;15.50;78.10
30304;DHT22;17112;48.636;10.152;2022-10-16T05:01:49;15.50;78.10
30304;DHT22;17112;48.636;10.152;2022-10-16T05:04:15;15.50;78.10
30304;DHT22;17112;48.636;10.152;2022-10-16T05:06:42;15.50;78.10
30304;DHT22;17112;48.636;10.152;2022-10-16T05:09:08;15.50;77.90
30304;DHT22;17112;48.636;10.152;2022-10-16T05:11:34;15.50;77.70
30304;DHT22;17112;48.636;10.152;2022-10-16T05:14:00;15.50;77.70
30304;DHT22;17112;48.636;10.152;2022-10-16T05:16:26;15.50;77.60
30304;DHT22;17112;48.636;10.152;2022-10-16T05:18:52;15.50;77.60
30304;DHT22;17112;48.636;10.152;2022-10-16T05:21:18;15.50;77.60
30304;DHT22;17112;48.636;10.152;2022-10-16T05:23:44;15.50;77.50
30304;DHT22;17112;48.636;10.152;2022-10-16T05:26:10;15.40;77.40
30304;DHT22;17112;48.636;10.152;2022-10-16T05:28:36;15.40;77.40
30304;DHT22;17112;48.636;10.152;2022-10-16T05:31:09;15.40;77.40
30304;DHT22;17112;48.636;10.152;2022-10-16T05:33:34;15.40;77.50
30304;DHT22;17112;48.636;10.152;2022-10-16T05:36:04;15.40;77.40
30304;DHT22;17112;48.636;10.152;2022-10-16T05:38:31;15.40;77.50
30304;DHT22;17112;48.636;10.152;2022-10-16T05:40:57;15.40;77.40
30304;DHT22;17112;48.636;10.152;2022-10-16T05:43:23;15.30;77.40
30304;DHT22;17112;48.636;10.152;2022-10-16T05:45:56;15.30;77.50
30304;DHT22;17112;48.636;10.152;2022-10-16T05:48:23;15.30;77.70
30304;DHT22;17112;48.636;10.152;2022-10-16T05:50:55;15.30;77.50
30304;DHT22;17112;48.636;10.152;2022-10-16T05:53:21;15.30;77.60
30304;DHT22;17112;48.636;10.152;2022-10-16T05:55:54;15.30;77.60
30304;DHT22;17112;48.636;10.152;2022-10-16T05:58:21;15.30;77.70
30304;DHT22;17112;48.636;10.152;2022-10-16T06:00:54;15.30;77.60
30304;DHT22;17112;48.636;10.152;2022-10-16T06:03:20;15.30;77.90
30304;DHT22;17112;48.636;10.152;2022-10-16T06:05:46;15.30;77.70
30304;DHT22;17112;48.636;10.152;2022-10-16T06:08:11;15.30;77.90
30304;DHT22;17112;48.636;10.152;2022-10-16T06:10:37;15.40;78.10
30304;DHT22;17112;48.636;10.152;2022-10-16T06:13:03;15.40;78.20
30304;DHT22;17112;48.636;10.152;2022-10-16T06:15:29;15.40;78.30
30304;DHT22;17112;48.636;10.152;2022-10-16T06:17:54;15.50;78.40
30304;DHT22;17112;48.636;10.152;2022-10-16T06:20:20;15.50;78.40
30304;DHT22;17112;48.636;10.152;2022-10-16T06:22:46;15.50;78.50
30304;DHT22;17112;48.636;10.152;2022-10-16T06:25:11;15.60;78.70
30304;DHT22;17112;48.636;10.152;2022-10-16T06:27:39;15.60;78.80
30304;DHT22;17112;48.636;10.152;2022-10-16T06:30:06;15.70;78.80
30304;DHT22;17112;48.636;10.152;2022-10-16T06:32:32;15.80;78.80
30304;DHT22;17112;48.636;10.152;2022-10-16T06:34:58;15.80;78.70
30304;DHT22;17112;48.636;10.152;2022-10-16T06:37:24;15.90;78.50
30304;DHT22;17112;48.636;10.152;2022-10-16T06:39:50;15.90;78.20
30304;DHT22;17112;48.636;10.152;2022-10-16T06:42:18;16.00;78.20
30304;DHT22;17112;48.636;10.152;2022-10-16T06:44:44;16.00;78.10
30304;DHT22;17112;48.636;10.152;2022-10-16T06:47:09;16.10;78.10
30304;DHT22;17112;48.636;10.152;2022-10-16T06:49:35;16.10;78.10
30304;DHT22;17112;48.636;10.152;2022-10-16T06:52:01;16.10;78.00
30304;DHT22;17112;48.636;10.152;2022-10-16T06:54:27;16.20;78.10
30304;DHT22;17112;48.636;10.152;2022-10-16T06:56:53;16.20;78.00
30304;DHT22;17112;48.636;10.152;2022-10-16T06:59:20;16.30;78.10
30304;DHT22;17112;48.636;10.152;2022-10-16T07:01:46;16.30;78.20
30304;DHT22;17112;48.636;10.152;2022-10-16T07:04:12;16.40;78.20
30304;DHT22;17112;48.636;10.152;2022-10-16T07:06:38;16.50;78.10
30304;DHT22;17112;48.636;10.152;2022-10-16T07:09:06;16.50;78.00
30304;DHT22;17112;48.636;10.152;2022-10-16T07:11:33;16.60;78.00
30304;DHT22;17112;48.636;10.152;2022-10-16T07:13:59;16.60;78.00
30304;DHT22;17112;48.636;10.152;2022-10-16T07:16:27;16.70;77.80
30304;DHT22;17112;48.636;10.152;2022-10-16T07:18:57;16.80;77.90
30304;DHT22;17112;48.636;10.152;2022-10-16T07:21:26;16.80;77.70
30304;DHT22;17112;48.636;10.152;2022-10-16T07:23:55;16.90;77.60
30304;DHT22;17112;48.636;10.152;2022-10-16T07:26:22;16.90;77.50
30304;DHT22;17112;48.636;10.152;2022-10-16T07:28:48;17.00;77.50
30304;DHT22;17112;48.636;10.152;2022-10-16T07:31:16;17.10;77.60
30304;DHT22;17112;48.636;10.152;2022-10-16T07:33:43;17.10;77.40
30304;DHT22;17112;48.636;10.152;2022-10-16T07:36:17;17.20;77.30
30304;DHT22;17112;48.636;10.152;2022-10-16T07:38:44;17.20;77.10
30304;DHT22;17112;48.636;10.152;2022-10-16T07:41:12;17.20;77.10
30304;DHT22;17112;48.636;10.152;2022-10-16T07:43:39;17.30;77.10
30304;DHT22;17112;48.636;10.152;2022-10-16T07:46:05;17.30;77.10
30304;DHT22;17112;48.636;10.152;2022-10-16T07:48:32;17.40;77.00
30304;DHT22;17112;48.636;10.152;2022-10-16T07:51:00;17.40;76.80
30304;DHT22;17112;48.636;10.152;2022-10-16T07:53:27;17.40;76.70
30304;DHT22;17112;48.636;10.152;2022-10-16T07:55:56;17.40;76.50
30304;DHT22;17112;48.636;10.152;2022-10-16T07:58:23;17.50;76.60
30304;DHT22;17112;48.636;10.152;2022-10-16T08:00:48;17.50;76.50
30304;DHT22;17112;48.636;10.152;2022-10-16T08:03:14;17.50;76.40
30304;DHT22;17112;48.636;10.152;2022-10-16T08:05:40;17.50;76.40
30304;DHT22;17112;48.636;10.152;2022-10-16T08:08:05;17.50;76.30
30304;DHT22;17112;48.636;10.152;2022-10-16T08:10:31;17.50;76.30
30304;DHT22;17112;48.636;10.152;2022-10-16T08:12:57;17.60;76.50
30304;DHT22;17112;48.636;10.152;2022-10-16T08:15:24;17.60;76.50
30304;DHT22;17112;48.636;10.152;2022-10-16T08:18:00;17.60;76.30
30304;DHT22;17112;48.636;10.152;2022-10-16T08:20:27;17.70;76.40
30304;DHT22;17112;48.636;10.152;2022-10-16T08:22:53;17.70;76.40
30304;DHT22;17112;48.636;10.152;2022-10-16T08:25:20;17.80;76.40
30304;DHT22;17112;48.636;10.152;2022-10-16T08:27:46;17.80;76.30
30304;DHT22;17112;48.636;10.152;2022-10-16T08:30:13;17.90;76.30
30304;DHT22;17112;48.636;10.152;2022-10-16T08:32:39;17.90;76.10
30304;DHT22;17112;48.636;10.152;2022-10-16T08:35:05;18.00;75.90
30304;DHT22;17112;48.636;10.152;2022-10-16T08:37:31;18.00;75.50
30304;DHT22;17112;48.636;10.152;2022-10-16T08:39:57;18.00;75.20
30304;DHT22;17112;48.636;10.152;2022-10-16T08:42:31;18.10;75.30
30304;DHT22;17112;48.636;10.152;2022-10-16T08:48:14;18.20;75.50
30304;DHT22;17112;48.636;10.152;2022-10-16T08:50:40;18.30;75.60
30304;DHT22;17112;48.636;10.152;2022-10-16T08:53:07;18.40;75.70
30304;DHT22;17112;48.636;10.152;2022-10-16T08:55:46;18.40;75.50
30304;DHT22;17112;48.636;10.152;2022-10-16T08:58:19;18.50;75.50
30304;DHT22;17112;48.636;10.152;2022-10-16T09:00:53;18.60;75.40
30304;DHT22;17112;48.636;10.152;2022-10-16T09:06:43;18.80;74.90
30304;DHT22;17112;48.636;10.152;2022-10-16T09:19:38;19.10;74.30
30304;DHT22;17112;48.636;10.152;2022-10-16T09:22:16;19.20;74.50
30304;DHT22;17112;48.636;10.152;2022-10-16T09:24:42;19.20;74.40
30304;DHT22;17112;48.636;10.152;2022-10-16T09:27:17;19.30;74.40
30304;DHT22;17112;48.636;10.152;2022-10-16T09:29:42;19.30;74.00
30304;DHT22;17112;48.636;10.152;2022-10-16T09:32:16;19.40;74.40
30304;DHT22;17112;48.636;10.152;2022-10-16T09:34:47;19.40;74.30
30304;DHT22;17112;48.636;10.152;2022-10-16T09:37:16;19.50;74.60
30304;DHT22;17112;48.636;10.152;2022-10-16T09:39:47;19.50;73.70
30304;DHT22;17112;48.636;10.152;2022-10-16T09:42:34;19.60;73.00
30304;DHT22;17112;48.636;10.152;2022-10-16T09:45:01;19.60;72.40
30304;DHT22;17112;48.636;10.152;2022-10-16T09:47:29;19.60;72.80
30304;DHT22;17112;48.636;10.152;2022-10-16T09:50:14;19.60;72.60
30304;DHT22;17112;48.636;10.152;2022-10-16T09:52:45;19.60;72.70
30304;DHT22;17112;48.636;10.152;2022-10-16T09:55:16;19.70;73.20
30304;DHT22;17112;48.636;10.152;2022-10-16T09:57:53;19.70;73.10
30304;DHT22;17112;48.636;10.152;2022-10-16T10:00:20;19.80;73.00
30304;DHT22;17112;48.636;10.152;2022-10-16T10:02:46;19.90;73.30
30304;DHT22;17112;48.636;10.152;2022-10-16T10:05:30;20.00;73.40
30304;DHT22;17112;48.636;10.152;2022-10-16T10:07:57;20.20;73.00
30304;DHT22;17112;48.636;10.152;2022-10-16T10:10:26;20.30;73.60
30304;DHT22;17112;48.636;10.152;2022-10-16T10:12:54;20.60;73.30
30304;DHT22;17112;48.636;10.152;2022-10-16T10:15:21;20.80;73.10
30304;DHT22;17112;48.636;10.152;2022-10-16T10:17:54;21.00;72.30
30304;DHT22;17112;48.636;10.152;2022-10-16T10:20:34;21.20;71.20
30304;DHT22;17112;48.636;10.152;2022-10-16T10:23:13;21.40;69.80
30304;DHT22;17112;48.636;10.152;2022-10-16T10:26:36;21.50;69.70
30304;DHT22;17112;48.636;10.152;2022-10-16T10:28:45;21.50;68.20
30304;DHT22;17112;48.636;10.152;2022-10-16T10:34:04;21.60;67.30
30304;DHT22;17112;48.636;10.152;2022-10-16T10:36:40;21.60;68.40
30304;DHT22;17112;48.636;10.152;2022-10-16T10:39:12;21.60;68.30
30304;DHT22;17112;48.636;10.152;2022-10-16T10:55:37;21.80;67.70
30304;DHT22;17112;48.636;10.152;2022-10-16T11:01:25;21.90;66.80
30304;DHT22;17112;48.636;10.152;2022-10-16T11:04:11;21.90;66.60
30304;DHT22;17112;48.636;10.152;2022-10-16T11:06:48;21.90;67.00
30304;DHT22;17112;48.636;10.152;2022-10-16T11:12:15;22.00;67.10
30304;DHT22;17112;48.636;10.152;2022-10-16T11:17:44;22.20;66.30
30304;DHT22;17112;48.636;10.152;2022-10-16T11:20:13;22.20;66.20
30304;DHT22;17112;48.636;10.152;2022-10-16T11:22:44;22.20;66.20
30304;DHT22;17112;48.636;10.152;2022-10-16T11:25:26;22.20;66.00
30304;DHT22;17112;48.636;10.152;2022-10-16T11:30:59;22.20;66.70
30304;DHT22;17112;48.636;10.152;2022-10-16T11:33:37;22.30;66.70
30304;DHT22;17112;48.636;10.152;2022-10-16T11:36:23;22.30;67.10
30304;DHT22;17112;48.636;10.152;2022-10-16T11:38:55;22.40;66.80
30304;DHT22;17112;48.636;10.152;2022-10-16T11:49:31;22.90;66.20
30304;DHT22;17112;48.636;10.152;2022-10-16T11:52:25;23.00;66.60
30304;DHT22;17112;48.636;10.152;2022-10-16T11:55:16;23.20;65.20
30304;DHT22;17112;48.636;10.152;2022-10-16T11:57:49;23.40;65.70
30304;DHT22;17112;48.636;10.152;2022-10-16T12:08:52;23.90;63.10
30304;DHT22;17112;48.636;10.152;2022-10-16T12:17:01;24.20;62.60
30304;DHT22;17112;48.636;10.152;2022-10-16T12:19:29;24.40;62.60
30304;DHT22;17112;48.636;10.152;2022-10-16T12:21:57;24.50;62.50
30304;DHT22;17112;48.636;10.152;2022-10-16T12:24:41;24.70;61.90
30304;DHT22;17112;48.636;10.152;2022-10-16T12:27:29;24.80;60.10
30304;DHT22;17112;48.636;10.152;2022-10-16T12:30:00;24.90;60.50
30304;DHT22;17112;48.636;10.152;2022-10-16T12:32:40;25.00;59.20
30304;DHT22;17112;48.636;10.152;2022-10-16T12:35:20;25.00;58.80
30304;DHT22;17112;48.636;10.152;2022-10-16T12:37:47;25.00;58.50
30304;DHT22;17112;48.636;10.152;2022-10-16T12:40:26;25.00;58.80
30304;DHT22;17112;48.636;10.152;2022-10-16T12:42:52;25.00;58.50
30304;DHT22;17112;48.636;10.152;2022-10-16T12:45:30;24.90;59.60
30304;DHT22;17112;48.636;10.152;2022-10-16T12:47:57;25.00;59.40
30304;DHT22;17112;48.636;10.152;2022-10-16T12:50:35;25.10;59.70
30304;DHT22;17112;48.636;10.152;2022-10-16T12:53:03;25.20;59.40
30304;DHT22;17112;48.636;10.152;2022-10-16T12:55:46;25.30;59.20
30304;DHT22;17112;48.636;10.152;2022-10-16T13:01:19;25.50;57.80
30304;DHT22;17112;48.636;10.152;2022-10-16T13:23:38;26.20;56.00
30304;DHT22;17112;48.636;10.152;2022-10-16T13:28:42;26.40;55.90
30304;DHT22;17112;48.636;10.152;2022-10-16T13:31:19;26.50;56.20
30304;DHT22;17112;48.636;10.152;2022-10-16T13:33:51;26.50;54.70
30304;DHT22;17112;48.636;10.152;2022-10-16T13:36:27;26.60;55.30
30304;DHT22;17112;48.636;10.152;2022-10-16T13:39:10;26.70;54.50
30304;DHT22;17112;48.636;10.152;2022-10-16T13:41:37;26.80;54.80
30304;DHT22;17112;48.636;10.152;2022-10-16T13:44:03;26.80;55.50
30304;DHT22;17112;48.636;10.152;2022-10-16T13:46:29;26.90;55.20
30304;DHT22;17112;48.636;10.152;2022-10-16T13:49:26;26.90;55.30
30304;DHT22;17112;48.636;10.152;2022-10-16T13:51:56;27.10;54.50
30304;DHT22;17112;48.636;10.152;2022-10-16T13:54:23;27.20;54.70
30304;DHT22;17112;48.636;10.152;2022-10-16T13:56:49;27.40;55.00
30304;DHT22;17112;48.636;10.152;2022-10-16T13:59:34;27.50;54.40
30304;DHT22;17112;48.636;10.152;2022-10-16T14:02:10;27.50;52.90
30304;DHT22;17112;48.636;10.152;2022-10-16T14:04:40;27.50;52.60
30304;DHT22;17112;48.636;10.152;2022-10-16T14:07:17;27.40;53.20
30304;DHT22;17112;48.636;10.152;2022-10-16T14:09:48;27.40;52.20
30304;DHT22;17112;48.636;10.152;2022-10-16T14:12:14;27.40;52.70
30304;DHT22;17112;48.636;10.152;2022-10-16T14:14:49;27.40;53.10
30304;DHT22;17112;48.636;10.152;2022-10-16T14:17:16;27.30;53.00
30304;DHT22;17112;48.636;10.152;2022-10-16T14:19:46;27.40;53.10
30304;DHT22;17112;48.636;10.152;2022-10-16T14:22:32;27.40;52.50
30304;DHT22;17112;48.636;10.152;2022-10-16T14:24:59;27.40;51.90
30304;DHT22;17112;48.636;10.152;2022-10-16T14:27:28;27.40;52.60
30304;DHT22;17112;48.636;10.152;2022-10-16T14:30:14;27.50;52.20
30304;DHT22;17112;48.636;10.152;2022-10-16T14:32:41;27.70;51.50
30304;DHT22;17112;48.636;10.152;2022-10-16T14:35:31;27.80;52.00
30304;DHT22;17112;48.636;10.152;2022-10-16T14:37:58;28.00;51.00
30304;DHT22;17112;48.636;10.152;2022-10-16T14:40:31;28.10;51.60
30304;DHT22;17112;48.636;10.152;2022-10-16T14:42:57;28.30;50.40
30304;DHT22;17112;48.636;10.152;2022-10-16T14:45:26;28.40;50.90
30304;DHT22;17112;48.636;10.152;2022-10-16T14:47:58;28.50;50.60
30304;DHT22;17112;48.636;10.152;2022-10-16T14:50:24;28.60;50.40
30304;DHT22;17112;48.636;10.152;2022-10-16T14:52:50;28.70;50.20
30304;DHT22;17112;48.636;10.152;2022-10-16T14:55:16;28.70;49.40
30304;DHT22;17112;48.636;10.152;2022-10-16T14:57:43;28.60;48.70
30304;DHT22;17112;48.636;10.152;2022-10-16T15:00:20;28.50;48.70
30304;DHT22;17112;48.636;10.152;2022-10-16T15:02:47;28.30;48.30
30304;DHT22;17112;48.636;10.152;2022-10-16T15:05:21;28.10;49.00
30304;DHT22;17112;48.636;10.152;2022-10-16T15:07:49;27.90;48.90
30304;DHT22;17112;48.636;10.152;2022-10-16T15:10:19;27.80;49.70
30304;DHT22;17112;48.636;10.152;2022-10-16T15:12:46;27.60;49.70
30304;DHT22;17112;48.636;10.152;2022-10-16T15:15:23;27.50;50.00
30304;DHT22;17112;48.636;10.152;2022-10-16T15:17:51;27.30;49.70
30304;DHT22;17112;48.636;10.152;2022-10-16T15:20:25;27.10;50.20
30304;DHT22;17112;48.636;10.152;2022-10-16T15:22:51;26.90;50.40
30304;DHT22;17112;48.636;10.152;2022-10-16T15:27:59;26.50;51.10
30304;DHT22;17112;48.636;10.152;2022-10-16T15:30:26;26.30;51.60
30304;DHT22;17112;48.636;10.152;2022-10-16T15:32:52;26.00;51.90
30304;DHT22;17112;48.636;10.152;2022-10-16T15:35:17;25.70;52.30
30304;DHT22;17112;48.636;10.152;2022-10-16T15:37:46;25.50;52.80
30304;DHT22;17112;48.636;10.152;2022-10-16T15:40:11;25.20;53.30
30304;DHT22;17112;48.636;10.152;2022-10-16T15:42:37;24.90;53.80
30304;DHT22;17112;48.636;10.152;2022-10-16T15:45:03;24.70;54.40
30304;DHT22;17112;48.636;10.152;2022-10-16T15:47:29;24.50;54.90
30304;DHT22;17112;48.636;10.152;2022-10-16T15:49:55;24.30;55.30
30304;DHT22;17112;48.636;10.152;2022-10-16T15:52:21;24.10;55.80
30304;DHT22;17112;48.636;10.152;2022-10-16T15:54:46;23.90;56.20
30304;DHT22;17112;48.636;10.152;2022-10-16T15:57:12;23.80;56.50
30304;DHT22;17112;48.636;10.152;2022-10-16T15:59:38;23.60;56.80
30304;DHT22;17112;48.636;10.152;2022-10-16T16:02:03;23.50;57.20
30304;DHT22;17112;48.636;10.152;2022-10-16T16:04:32;23.30;57.40
30304;DHT22;17112;48.636;10.152;2022-10-16T16:06:58;23.20;57.90
30304;DHT22;17112;48.636;10.152;2022-10-16T16:09:23;23.10;58.10
30304;DHT22;17112;48.636;10.152;2022-10-16T16:11:49;23.00;58.40
30304;DHT22;17112;48.636;10.152;2022-10-16T16:14:16;22.90;58.70
30304;DHT22;17112;48.636;10.152;2022-10-16T16:16:42;22.80;58.90
30304;DHT22;17112;48.636;10.152;2022-10-16T16:19:08;22.80;59.10
30304;DHT22;17112;48.636;10.152;2022-10-16T16:21:35;22.70;59.20
30304;DHT22;17112;48.636;10.152;2022-10-16T16:24:01;22.60;59.40
30304;DHT22;17112;48.636;10.152;2022-10-16T16:26:34;22.50;59.50
30304;DHT22;17112;48.636;10.152;2022-10-16T16:29:03;22.50;59.90
30304;DHT22;17112;48.636;10.152;2022-10-16T16:31:30;22.40;60.10
30304;DHT22;17112;48.636;10.152;2022-10-16T16:33:57;22.40;60.30
30304;DHT22;17112;48.636;10.152;2022-10-16T16:36:23;22.30;60.70
30304;DHT22;17112;48.636;10.152;2022-10-16T16:38:49;22.20;61.20
30304;DHT22;17112;48.636;10.152;2022-10-16T16:41:17;22.20;61.30
30304;DHT22;17112;48.636;10.152;2022-10-16T16:43:44;22.10;61.40
30304;DHT22;17112;48.636;10.152;2022-10-16T16:46:11;22.10;61.50
30304;DHT22;17112;48.636;10.152;2022-10-16T16:48:37;22.00;61.80
30304;DHT22;17112;48.636;10.152;2022-10-16T16:51:06;22.00;61.90
30304;DHT22;17112;48.636;10.152;2022-10-16T16:53:36;21.90;62.10
30304;DHT22;17112;48.636;10.152;2022-10-16T16:56:04;21.80;62.10
30304;DHT22;17112;48.636;10.152;2022-10-16T16:58:30;21.80;62.30
30304;DHT22;17112;48.636;10.152;2022-10-16T17:00:56;21.80;62.70
30304;DHT22;17112;48.636;10.152;2022-10-16T17:03:22;21.70;63.10
30304;DHT22;17112;48.636;10.152;2022-10-16T17:06:17;21.70;63.40
30304;DHT22;17112;48.636;10.152;2022-10-16T17:08:43;21.60;64.00
30304;DHT22;17112;48.636;10.152;2022-10-16T17:11:16;21.60;63.50
30304;DHT22;17112;48.636;10.152;2022-10-16T17:13:43;21.50;64.10
30304;DHT22;17112;48.636;10.152;2022-10-16T17:16:10;21.50;64.00
30304;DHT22;17112;48.636;10.152;2022-10-16T17:18:36;21.40;64.20
30304;DHT22;17112;48.636;10.152;2022-10-16T17:21:05;21.40;64.30